sensor_id;sensor_type;location;lat;lon;timestamp;noise_LAeq;noise_LA_min;noise_LA_max;noise_LA01;noise_LA95
72686;Laerm;61365;52.162;4.500;2023-05-19T00:00:32;42.86;34.28;52.78;;
72686;Laerm;61365;52.162;4.500;2023-05-19T00:02:59;43.07;38.61;44.90;;
72686;Laerm;61365;52.162;4.500;2023-05-19T00:05:25;43.04;40.13;44.87;;
72686;Laerm;61365;52.162;4.500;2023-05-19T00:07:58;43.02;38.16;45.02;;
72686;Laerm;61365;52.162;4.500;2023-05-19T00:10:25;43.00;34.78;52.34;;
72686;Laerm;61365;52.162;4.500;2023-05-19T00:12:57;43.01;35.29;52.77;;
72686;Laerm;61365;52.162;4.500;2023-05-19T00:15:23;42.98;34.65;52.87;;
72686;Laerm;61365;52.162;4.500;2023-05-19T00:17:50;43.01;33.82;53.07;;
72686;Laerm;61365;52.162;4.500;2023-05-19T00:20:17;43.04;35.07;52.83;;
72686;Laerm;61365;52.162;4.500;2023-05-19T00:22:43;43.02;40.47;44.95;;
72686;Laerm;61365;52.162;4.500;2023-05-19T00:25:09;42.92;38.44;45.13;;
72686;Laerm;61365;52.162;4.500;2023-05-19T00:27:36;42.89;39.72;44.67;;
72686;Laerm;61365;52.162;4.500;2023-05-19T00:30:02;42.94;40.46;44.81;;
72686;Laerm;61365;52.162;4.500;2023-05-19T00:32:28;42.99;39.41;44.93;;
72686;Laerm;61365;52.162;4.500;2023-05-19T00:34:54;42.95;33.67;52.93;;
72686;Laerm;61365;52.162;4.500;2023-05-19T00:37:20;43.00;39.65;44.87;;
72686;Laerm;61365;52.162;4.500;2023-05-19T00:39:48;43.02;33.68;53.29;;
72686;Laerm;61365;52.162;4.500;2023-05-19T00:42:14;42.98;39.71;45.19;;
72686;Laerm;61365;52.162;4.500;2023-05-19T00:44:40;42.91;40.41;44.74;;
72686;Laerm;61365;52.162;4.500;2023-05-19T00:47:07;42.97;39.14;52.97;;
72686;Laerm;61365;52.162;4.500;2023-05-19T00:49:34;42.90;39.01;45.01;;
72686;Laerm;61365;52.162;4.500;2023-05-19T00:52:00;42.89;34.03;52.58;;
72686;Laerm;61365;52.162;4.500;2023-05-19T00:54:28;42.92;35.53;52.97;;
72686;Laerm;61365;52.162;4.500;2023-05-19T00:56:54;42.94;39.75;44.96;;
72686;Laerm;61365;52.162;4.500;2023-05-19T00:59:23;42.90;39.57;45.14;;
72686;Laerm;61365;52.162;4.500;2023-05-19T01:01:49;43.00;38.70;45.16;;
72686;Laerm;61365;52.162;4.500;2023-05-19T01:04:18;43.21;38.45;45.29;;
72686;Laerm;61365;52.162;4.500;2023-05-19T01:06:48;42.99;36.30;50.75;;
72686;Laerm;61365;52.162;4.500;2023-05-19T01:09:21;42.89;40.42;44.85;;
72686;Laerm;61365;52.162;4.500;2023-05-19T01:11:50;43.15;40.57;45.48;;
72686;Laerm;61365;52.162;4.500;2023-05-19T01:14:17;43.17;38.92;45.39;;
72686;Laerm;61365;52.162;4.500;2023-05-19T01:17:06;42.93;40.51;44.73;;
72686;Laerm;61365;52.162;4.500;2023-05-19T01:19:51;42.92;33.77;50.87;;
72686;Laerm;61365;52.162;4.500;2023-05-19T01:30:53;42.94;39.66;44.92;;
72686;Laerm;61365;52.162;4.500;2023-05-19T01:33:22;43.00;33.25;52.20;;
72686;Laerm;61365;52.162;4.500;2023-05-19T01:35:50;42.98;37.55;45.30;;
72686;Laerm;61365;52.162;4.500;2023-05-19T01:38:17;43.01;38.64;45.24;;
72686;Laerm;61365;52.162;4.500;2023-05-19T01:40:45;42.95;34.14;52.26;;
72686;Laerm;61365;52.162;4.500;2023-05-19T01:43:18;42.95;37.80;52.40;;
72686;Laerm;61365;52.162;4.500;2023-05-19T01:45:46;43.01;39.32;52.02;;
72686;Laerm;61365;52.162;4.500;2023-05-19T01:48:13;43.01;34.07;52.54;;
72686;Laerm;61365;52.162;4.500;2023-05-19T01:50:40;43.00;35.25;52.73;;
72686;Laerm;61365;52.162;4.500;2023-05-19T01:53:07;43.00;39.45;52.71;;
72686;Laerm;61365;52.162;4.500;2023-05-19T01:55:35;43.01;38.60;45.05;;
72686;Laerm;61365;52.162;4.500;2023-05-19T01:58:16;42.98;39.34;44.85;;
72686;Laerm;61365;52.162;4.500;2023-05-19T02:00:52;42.98;39.91;44.92;;
72686;Laerm;61365;52.162;4.500;2023-05-19T02:03:47;43.00;33.26;52.16;;
72686;Laerm;61365;52.162;4.500;2023-05-19T02:09:17;43.02;39.25;44.98;;
72686;Laerm;61365;52.162;4.500;2023-05-19T02:11:54;42.96;39.85;45.15;;
72686;Laerm;61365;52.162;4.500;2023-05-19T02:14:31;42.88;40.26;44.98;;
72686;Laerm;61365;52.162;4.500;2023-05-19T02:16:59;42.88;33.53;52.59;;
72686;Laerm;61365;52.162;4.500;2023-05-19T02:19:29;42.93;38.79;44.90;;
72686;Laerm;61365;52.162;4.500;2023-05-19T02:21:55;42.91;39.25;45.01;;
72686;Laerm;61365;52.162;4.500;2023-05-19T02:24:22;42.87;39.26;44.79;;
72686;Laerm;61365;52.162;4.500;2023-05-19T02:26:52;42.91;39.74;44.87;;
72686;Laerm;61365;52.162;4.500;2023-05-19T02:29:19;42.87;39.75;45.00;;
72686;Laerm;61365;52.162;4.500;2023-05-19T02:31:46;42.87;34.56;52.52;;
72686;Laerm;61365;52.162;4.500;2023-05-19T02:34:12;42.92;40.21;44.86;;
72686;Laerm;61365;52.162;4.500;2023-05-19T02:36:40;42.84;39.81;44.95;;
72686;Laerm;61365;52.162;4.500;2023-05-19T02:39:11;42.85;33.51;52.43;;
72686;Laerm;61365;52.162;4.500;2023-05-19T02:41:37;42.92;34.02;52.80;;
72686;Laerm;61365;52.162;4.500;2023-05-19T02:44:04;42.93;34.51;53.01;;
72686;Laerm;61365;52.162;4.500;2023-05-19T02:46:30;42.86;38.13;44.63;;
72686;Laerm;61365;52.162;4.500;2023-05-19T02:48:56;42.82;37.91;44.82;;
72686;Laerm;61365;52.162;4.500;2023-05-19T02:51:22;42.85;39.61;44.73;;
72686;Laerm;61365;52.162;4.500;2023-05-19T02:53:49;42.90;40.50;44.70;;
72686;Laerm;61365;52.162;4.500;2023-05-19T02:56:15;42.80;34.33;52.84;;
72686;Laerm;61365;52.162;4.500;2023-05-19T02:58:41;42.87;34.33;52.27;;
72686;Laerm;61365;52.162;4.500;2023-05-19T03:01:08;42.86;40.72;45.03;;
72686;Laerm;61365;52.162;4.500;2023-05-19T03:03:34;42.80;38.38;44.96;;
72686;Laerm;61365;52.162;4.500;2023-05-19T03:06:00;42.78;38.67;44.93;;
72686;Laerm;61365;52.162;4.500;2023-05-19T03:08:27;42.95;33.09;52.46;;
72686;Laerm;61365;52.162;4.500;2023-05-19T03:10:53;42.99;33.94;52.61;;
72686;Laerm;61365;52.162;4.500;2023-05-19T03:13:19;42.90;40.46;44.89;;
72686;Laerm;61365;52.162;4.500;2023-05-19T03:15:45;42.92;39.42;44.85;;
72686;Laerm;61365;52.162;4.500;2023-05-19T03:18:12;42.91;40.28;45.14;;
72686;Laerm;61365;52.162;4.500;2023-05-19T03:20:38;42.90;34.75;52.66;;
72686;Laerm;61365;52.162;4.500;2023-05-19T03:23:04;42.93;39.36;44.74;;
72686;Laerm;61365;52.162;4.500;2023-05-19T03:25:31;42.97;33.89;52.78;;
72686;Laerm;61365;52.162;4.500;2023-05-19T03:27:57;43.02;39.98;45.28;;
72686;Laerm;61365;52.162;4.500;2023-05-19T03:30:23;43.18;33.66;52.07;;
72686;Laerm;61365;52.162;4.500;2023-05-19T03:32:49;43.02;34.13;52.35;;
72686;Laerm;61365;52.162;4.500;2023-05-19T03:35:17;42.75;38.00;44.82;;
72686;Laerm;61365;52.162;4.500;2023-05-19T03:37:43;42.90;40.26;44.78;;
72686;Laerm;61365;52.162;4.500;2023-05-19T03:40:09;42.93;39.10;45.07;;
72686;Laerm;61365;52.162;4.500;2023-05-19T03:42:35;42.98;39.23;44.85;;
72686;Laerm;61365;52.162;4.500;2023-05-19T03:45:02;43.01;40.34;45.37;;
72686;Laerm;61365;52.162;4.500;2023-05-19T03:47:28;42.89;39.83;44.80;;
72686;Laerm;61365;52.162;4.500;2023-05-19T03:49:54;42.90;39.66;44.61;;
72686;Laerm;61365;52.162;4.500;2023-05-19T03:52:20;42.89;40.20;45.08;;
72686;Laerm;61365;52.162;4.500;2023-05-19T03:54:46;43.06;40.70;45.00;;
72686;Laerm;61365;52.162;4.500;2023-05-19T03:57:13;42.97;34.25;52.67;;
72686;Laerm;61365;52.162;4.500;2023-05-19T03:59:39;42.92;33.29;52.32;;
72686;Laerm;61365;52.162;4.500;2023-05-19T04:02:06;42.92;38.15;52.41;;
72686;Laerm;61365;52.162;4.500;2023-05-19T04:04:32;43.00;39.99;45.25;;
72686;Laerm;61365;52.162;4.500;2023-05-19T04:06:58;42.99;38.65;52.85;;
72686;Laerm;61365;52.162;4.500;2023-05-19T04:09:24;42.80;37.54;44.79;;
72686;Laerm;61365;52.162;4.500;2023-05-19T04:11:50;42.86;40.35;44.67;;
72686;Laerm;61365;52.162;4.500;2023-05-19T04:14:16;42.83;38.32;44.67;;
72686;Laerm;61365;52.162;4.500;2023-05-19T04:16:44;42.96;39.40;45.02;;
72686;Laerm;61365;52.162;4.500;2023-05-19T04:19:10;43.00;36.12;52.87;;
72686;Laerm;61365;52.162;4.500;2023-05-19T04:21:36;42.97;40.57;45.03;;
72686;Laerm;61365;52.162;4.500;2023-05-19T04:24:02;43.07;40.44;45.36;;
72686;Laerm;61365;52.162;4.500;2023-05-19T04:26:31;42.87;38.01;52.22;;
72686;Laerm;61365;52.162;4.500;2023-05-19T04:28:59;43.01;36.75;50.86;;
72686;Laerm;61365;52.162;4.500;2023-05-19T04:31:28;42.96;40.28;44.89;;
72686;Laerm;61365;52.162;4.500;2023-05-19T04:33:54;43.00;39.70;44.96;;
72686;Laerm;61365;52.162;4.500;2023-05-19T04:36:20;42.86;36.81;52.32;;
72686;Laerm;61365;52.162;4.500;2023-05-19T04:38:47;42.87;34.53;52.78;;
72686;Laerm;61365;52.162;4.500;2023-05-19T04:41:13;42.82;39.22;44.66;;
72686;Laerm;61365;52.162;4.500;2023-05-19T04:43:41;42.88;33.93;52.37;;
72686;Laerm;61365;52.162;4.500;2023-05-19T04:46:10;42.97;38.78;44.92;;
72686;Laerm;61365;52.162;4.500;2023-05-19T04:48:36;42.83;34.91;52.55;;
72686;Laerm;61365;52.162;4.500;2023-05-19T04:51:03;42.86;34.65;52.49;;
72686;Laerm;61365;52.162;4.500;2023-05-19T04:53:29;42.77;38.17;44.49;;
72686;Laerm;61365;52.162;4.500;2023-05-19T04:55:57;42.68;33.95;52.36;;
72686;Laerm;61365;52.162;4.500;2023-05-19T04:58:23;42.60;34.81;52.71;;
72686;Laerm;61365;52.162;4.500;2023-05-19T05:00:53;42.75;34.26;52.37;;
72686;Laerm;61365;52.162;4.500;2023-05-19T05:03:23;42.54;33.78;52.65;;
72686;Laerm;61365;52.162;4.500;2023-05-19T05:05:49;42.53;34.70;52.82;;
72686;Laerm;61365;52.162;4.500;2023-05-19T05:08:17;42.58;33.41;50.42;;
72686;Laerm;61365;52.162;4.500;2023-05-19T05:10:51;42.59;37.34;44.98;;
72686;Laerm;61365;52.162;4.500;2023-05-19T05:13:20;42.67;38.56;44.75;;
72686;Laerm;61365;52.162;4.500;2023-05-19T05:15:47;42.65;39.46;44.95;;
72686;Laerm;61365;52.162;4.500;2023-05-19T05:18:14;42.62;37.52;44.95;;
72686;Laerm;61365;52.162;4.500;2023-05-19T05:20:44;42.59;37.81;44.74;;
72686;Laerm;61365;52.162;4.500;2023-05-19T05:23:11;42.47;33.56;53.41;;
72686;Laerm;61365;52.162;4.500;2023-05-19T05:25:42;42.54;33.31;52.73;;
72686;Laerm;61365;52.162;4.500;2023-05-19T05:28:08;42.50;39.78;44.40;;
72686;Laerm;61365;52.162;4.500;2023-05-19T05:30:34;42.45;36.97;44.62;;
72686;Laerm;61365;52.162;4.500;2023-05-19T05:33:01;42.45;37.73;44.61;;
72686;Laerm;61365;52.162;4.500;2023-05-19T05:35:27;42.48;38.62;44.76;;
72686;Laerm;61365;52.162;4.500;2023-05-19T05:37:54;42.43;37.40;44.91;;
72686;Laerm;61365;52.162;4.500;2023-05-19T05:40:20;42.46;37.04;44.85;;
72686;Laerm;61365;52.162;4.500;2023-05-19T05:42:46;42.52;35.99;44.78;;
72686;Laerm;61365;52.162;4.500;2023-05-19T05:45:12;42.46;37.76;44.47;;
72686;Laerm;61365;52.162;4.500;2023-05-19T05:47:39;42.50;32.29;44.85;;
72686;Laerm;61365;52.162;4.500;2023-05-19T05:50:08;42.41;32.39;52.48;;
72686;Laerm;61365;52.162;4.500;2023-05-19T05:52:35;42.19;32.74;53.29;;
72686;Laerm;61365;52.162;4.500;2023-05-19T05:55:05;42.18;36.32;44.18;;
72686;Laerm;61365;52.162;4.500;2023-05-19T05:57:31;42.27;35.95;44.19;;
72686;Laerm;61365;52.162;4.500;2023-05-19T06:00:00;42.24;36.72;44.44;;
72686;Laerm;61365;52.162;4.500;2023-05-19T06:02:26;42.30;37.75;44.59;;
72686;Laerm;61365;52.162;4.500;2023-05-19T06:04:53;42.43;36.95;44.62;;
72686;Laerm;61365;52.162;4.500;2023-05-19T06:07:19;42.45;36.23;53.22;;
72686;Laerm;61365;52.162;4.500;2023-05-19T06:09:46;42.44;38.23;44.73;;
72686;Laerm;61365;52.162;4.500;2023-05-19T06:12:12;42.41;35.96;45.03;;
72686;Laerm;61365;52.162;4.500;2023-05-19T06:14:38;42.38;34.06;50.34;;
72686;Laerm;61365;52.162;4.500;2023-05-19T06:17:04;42.11;32.97;52.69;;
72686;Laerm;61365;52.162;4.500;2023-05-19T06:19:31;42.17;37.50;44.47;;
72686;Laerm;61365;52.162;4.500;2023-05-19T06:21:57;42.19;32.43;50.68;;
72686;Laerm;61365;52.162;4.500;2023-05-19T06:24:23;42.22;35.58;44.65;;
72686;Laerm;61365;52.162;4.500;2023-05-19T06:26:49;42.23;32.72;50.81;;
72686;Laerm;61365;52.162;4.500;2023-05-19T06:29:15;42.20;35.96;44.39;;
72686;Laerm;61365;52.162;4.500;2023-05-19T06:31:41;42.19;33.03;52.36;;
72686;Laerm;61365;52.162;4.500;2023-05-19T06:34:08;42.15;33.30;53.02;;
72686;Laerm;61365;52.162;4.500;2023-05-19T06:36:37;42.07;37.56;44.43;;
72686;Laerm;61365;52.162;4.500;2023-05-19T06:39:05;42.25;36.16;44.80;;
72686;Laerm;61365;52.162;4.500;2023-05-19T06:41:31;42.07;38.29;44.36;;
72686;Laerm;61365;52.162;4.500;2023-05-19T06:43:57;42.15;35.69;44.48;;
72686;Laerm;61365;52.162;4.500;2023-05-19T06:46:23;42.07;33.38;44.27;;
72686;Laerm;61365;52.162;4.500;2023-05-19T06:48:49;42.19;34.17;51.48;;
72686;Laerm;61365;52.162;4.500;2023-05-19T06:51:16;42.13;37.95;44.46;;
72686;Laerm;61365;52.162;4.500;2023-05-19T06:53:47;42.23;36.90;44.51;;
72686;Laerm;61365;52.162;4.500;2023-05-19T06:56:14;42.19;32.54;53.37;;
72686;Laerm;61365;52.162;4.500;2023-05-19T06:58:40;42.29;37.72;44.41;;
72686;Laerm;61365;52.162;4.500;2023-05-19T07:01:07;42.28;34.24;53.24;;
72686;Laerm;61365;52.162;4.500;2023-05-19T07:03:33;42.04;36.90;44.43;;
72686;Laerm;61365;52.162;4.500;2023-05-19T07:05:59;42.16;32.78;52.44;;
72686;Laerm;61365;52.162;4.500;2023-05-19T07:08:25;42.08;36.26;44.16;;
72686;Laerm;61365;52.162;4.500;2023-05-19T07:10:52;41.99;36.06;44.35;;
72686;Laerm;61365;52.162;4.500;2023-05-19T07:13:21;42.05;32.57;52.51;;
72686;Laerm;61365;52.162;4.500;2023-05-19T07:15:47;42.00;32.74;52.74;;
72686;Laerm;61365;52.162;4.500;2023-05-19T07:18:17;42.10;39.02;44.04;;
72686;Laerm;61365;52.162;4.500;2023-05-19T07:20:44;41.99;32.40;52.93;;
72686;Laerm;61365;52.162;4.500;2023-05-19T07:23:10;42.11;35.72;44.15;;
72686;Laerm;61365;52.162;4.500;2023-05-19T07:25:37;42.11;39.57;44.24;;
72686;Laerm;61365;52.162;4.500;2023-05-19T07:28:03;42.05;34.82;44.16;;
72686;Laerm;61365;52.162;4.500;2023-05-19T07:30:29;42.03;36.84;44.22;;
72686;Laerm;61365;52.162;4.500;2023-05-19T07:32:55;42.05;37.58;44.26;;
72686;Laerm;61365;52.162;4.500;2023-05-19T07:35:21;42.07;38.45;44.25;;
72686;Laerm;61365;52.162;4.500;2023-05-19T07:37:48;41.91;38.82;44.14;;
72686;Laerm;61365;52.162;4.500;2023-05-19T07:40:14;42.04;38.81;44.27;;
72686;Laerm;61365;52.162;4.500;2023-05-19T07:42:40;42.02;39.11;44.17;;
72686;Laerm;61365;52.162;4.500;2023-05-19T07:45:07;42.07;38.25;44.44;;
72686;Laerm;61365;52.162;4.500;2023-05-19T07:47:33;42.13;37.37;44.32;;
72686;Laerm;61365;52.162;4.500;2023-05-19T07:50:00;42.16;37.78;44.16;;
72686;Laerm;61365;52.162;4.500;2023-05-19T07:52:26;42.14;35.92;44.51;;
72686;Laerm;61365;52.162;4.500;2023-05-19T07:54:52;42.08;38.66;44.23;;
72686;Laerm;61365;52.162;4.500;2023-05-19T07:57:18;41.94;36.60;43.97;;
72686;Laerm;61365;52.162;4.500;2023-05-19T07:59:44;42.00;38.93;44.14;;
72686;Laerm;61365;52.162;4.500;2023-05-19T08:02:10;42.04;36.75;47.23;;
72686;Laerm;61365;52.162;4.500;2023-05-19T08:04:37;42.06;37.34;44.32;;
72686;Laerm;61365;52.162;4.500;2023-05-19T08:07:03;41.99;36.55;44.08;;
72686;Laerm;61365;52.162;4.500;2023-05-19T08:09:29;42.12;37.44;44.43;;
72686;Laerm;61365;52.162;4.500;2023-05-19T08:11:55;42.01;39.51;44.21;;
72686;Laerm;61365;52.162;4.500;2023-05-19T08:14:21;42.01;37.89;44.22;;
72686;Laerm;61365;52.162;4.500;2023-05-19T08:16:48;41.93;35.63;44.10;;
72686;Laerm;61365;52.162;4.500;2023-05-19T08:19:14;42.08;36.51;44.36;;
72686;Laerm;61365;52.162;4.500;2023-05-19T08:21:40;41.74;32.63;53.12;;
72686;Laerm;61365;52.162;4.500;2023-05-19T08:24:07;42.10;39.59;44.40;;
72686;Laerm;61365;52.162;4.500;2023-05-19T08:26:34;42.05;39.63;44.27;;
72686;Laerm;61365;52.162;4.500;2023-05-19T08:29:00;42.23;36.59;44.52;;
72686;Laerm;61365;52.162;4.500;2023-05-19T08:31:26;42.18;37.79;44.37;;
72686;Laerm;61365;52.162;4.500;2023-05-19T08:33:52;42.11;36.57;44.44;;
72686;Laerm;61365;52.162;4.500;2023-05-19T08:36:18;41.94;38.24;44.08;;
72686;Laerm;61365;52.162;4.500;2023-05-19T08:38:44;42.02;37.36;44.28;;
72686;Laerm;61365;52.162;4.500;2023-05-19T08:41:10;41.98;39.20;44.30;;
72686;Laerm;61365;52.162;4.500;2023-05-19T08:43:37;42.07;32.25;52.85;;
72686;Laerm;61365;52.162;4.500;2023-05-19T08:46:04;41.93;36.70;44.17;;
72686;Laerm;61365;52.162;4.500;2023-05-19T08:48:34;42.14;36.30;44.36;;
72686;Laerm;61365;52.162;4.500;2023-05-19T08:53:49;42.05;36.82;44.25;;
72686;Laerm;61365;52.162;4.500;2023-05-19T08:56:20;41.85;36.27;43.88;;
72686;Laerm;61365;52.162;4.500;2023-05-19T08:58:50;42.02;37.07;44.24;;
72686;Laerm;61365;52.162;4.500;2023-05-19T09:01:18;42.07;38.51;44.54;;
72686;Laerm;61365;52.162;4.500;2023-05-19T09:03:45;42.08;35.93;44.01;;
72686;Laerm;61365;52.162;4.500;2023-05-19T09:06:12;42.28;39.47;44.47;;
72686;Laerm;61365;52.162;4.500;2023-05-19T09:08:40;42.11;32.72;44.15;;
72686;Laerm;61365;52.162;4.500;2023-05-19T09:11:10;42.12;36.44;45.84;;
72686;Laerm;61365;52.162;4.500;2023-05-19T09:13:37;42.06;38.16;44.10;;
72686;Laerm;61365;52.162;4.500;2023-05-19T09:16:03;41.71;39.46;44.23;;
72686;Laerm;61365;52.162;4.500;2023-05-19T09:18:29;42.05;38.26;45.97;;
72686;Laerm;61365;52.162;4.500;2023-05-19T09:20:57;41.95;37.21;44.52;;
72686;Laerm;61365;52.162;4.500;2023-05-19T09:23:31;41.85;32.68;52.14;;
72686;Laerm;61365;52.162;4.500;2023-05-19T09:26:02;42.04;34.54;52.74;;
72686;Laerm;61365;52.162;4.500;2023-05-19T09:28:33;42.06;39.02;44.49;;
72686;Laerm;61365;52.162;4.500;2023-05-19T09:33:31;42.10;34.77;44.18;;
72686;Laerm;61365;52.162;4.500;2023-05-19T09:35:58;41.96;37.74;44.60;;
72686;Laerm;61365;52.162;4.500;2023-05-19T09:38:25;42.10;37.10;44.32;;
72686;Laerm;61365;52.162;4.500;2023-05-19T09:40:54;42.10;37.51;44.28;;
72686;Laerm;61365;52.162;4.500;2023-05-19T09:43:21;42.02;36.57;44.37;;
72686;Laerm;61365;52.162;4.500;2023-05-19T09:45:48;42.03;35.28;45.95;;
72686;Laerm;61365;52.162;4.500;2023-05-19T09:48:19;42.14;35.62;44.28;;
72686;Laerm;61365;52.162;4.500;2023-05-19T09:50:47;42.07;36.84;44.53;;
72686;Laerm;61365;52.162;4.500;2023-05-19T09:53:13;42.10;38.34;44.28;;
72686;Laerm;61365;52.162;4.500;2023-05-19T09:55:40;42.09;34.49;44.60;;
72686;Laerm;61365;52.162;4.500;2023-05-19T09:58:08;42.09;33.27;52.23;;
72686;Laerm;61365;52.162;4.500;2023-05-19T10:00:34;42.05;35.65;44.19;;
72686;Laerm;61365;52.162;4.500;2023-05-19T10:03:03;42.09;32.59;52.25;;
72686;Laerm;61365;52.162;4.500;2023-05-19T10:05:30;41.68;35.10;43.94;;
72686;Laerm;61365;52.162;4.500;2023-05-19T10:07:57;41.81;36.28;44.45;;
72686;Laerm;61365;52.162;4.500;2023-05-19T10:10:25;42.03;37.91;44.45;;
72686;Laerm;61365;52.162;4.500;2023-05-19T10:12:53;42.10;35.74;44.38;;
72686;Laerm;61365;52.162;4.500;2023-05-19T10:15:19;41.77;37.53;43.98;;
72686;Laerm;61365;52.162;4.500;2023-05-19T10:17:47;41.93;39.20;44.03;;
72686;Laerm;61365;52.162;4.500;2023-05-19T10:20:16;42.10;39.11;44.61;;
72686;Laerm;61365;52.162;4.500;2023-05-19T10:22:45;42.09;32.59;44.13;;
72686;Laerm;61365;52.162;4.500;2023-05-19T10:25:12;42.03;38.64;44.29;;
72686;Laerm;61365;52.162;4.500;2023-05-19T10:27:44;42.00;39.03;44.45;;
72686;Laerm;61365;52.162;4.500;2023-05-19T10:30:16;42.07;32.76;54.75;;
72686;Laerm;61365;52.162;4.500;2023-05-19T10:32:45;41.95;31.83;44.23;;
72686;Laerm;61365;52.162;4.500;2023-05-19T10:35:23;42.05;38.44;44.53;;
72686;Laerm;61365;52.162;4.500;2023-05-19T10:38:20;42.10;35.39;46.87;;
72686;Laerm;61365;52.162;4.500;2023-05-19T10:41:10;42.07;36.72;44.25;;
72686;Laerm;61365;52.162;4.500;2023-05-19T10:46:26;42.15;37.82;44.53;;
72686;Laerm;61365;52.162;4.500;2023-05-19T10:48:56;42.12;39.53;46.83;;
72686;Laerm;61365;52.162;4.500;2023-05-19T10:51:32;41.91;36.38;44.28;;
72686;Laerm;61365;52.162;4.500;2023-05-19T10:54:06;41.92;36.13;44.30;;
72686;Laerm;61365;52.162;4.500;2023-05-19T10:56:38;42.06;37.65;44.33;;
72686;Laerm;61365;52.162;4.500;2023-05-19T10:59:07;42.15;38.46;44.35;;
72686;Laerm;61365;52.162;4.500;2023-05-19T11:01:53;42.18;32.41;52.69;;
72686;Laerm;61365;52.162;4.500;2023-05-19T11:04:38;42.10;39.25;44.42;;
72686;Laerm;61365;52.162;4.500;2023-05-19T11:07:04;41.92;36.79;44.14;;
72686;Laerm;61365;52.162;4.500;2023-05-19T11:09:30;42.13;37.31;44.41;;
72686;Laerm;61365;52.162;4.500;2023-05-19T11:12:01;42.03;31.76;44.35;;
72686;Laerm;61365;52.162;4.500;2023-05-19T11:14:28;42.08;36.15;44.59;;
72686;Laerm;61365;52.162;4.500;2023-05-19T11:16:57;42.12;37.20;44.37;;
72686;Laerm;61365;52.162;4.500;2023-05-19T11:19:31;42.12;37.50;44.33;;
72686;Laerm;61365;52.162;4.500;2023-05-19T11:22:12;42.10;38.13;44.31;;
72686;Laerm;61365;52.162;4.500;2023-05-19T11:24:44;42.09;37.46;44.69;;
72686;Laerm;61365;52.162;4.500;2023-05-19T11:27:32;41.92;37.47;44.11;;
72686;Laerm;61365;52.162;4.500;2023-05-19T11:32:34;42.01;37.06;44.36;;
72686;Laerm;61365;52.162;4.500;2023-05-19T11:35:04;41.97;36.19;44.48;;
72686;Laerm;61365;52.162;4.500;2023-05-19T11:37:31;41.96;36.86;44.72;;
72686;Laerm;61365;52.162;4.500;2023-05-19T11:40:00;42.10;36.64;44.42;;
72686;Laerm;61365;52.162;4.500;2023-05-19T11:42:26;42.06;36.44;44.51;;
72686;Laerm;61365;52.162;4.500;2023-05-19T11:44:56;41.92;36.82;44.36;;
72686;Laerm;61365;52.162;4.500;2023-05-19T11:47:22;42.09;39.58;44.44;;
72686;Laerm;61365;52.162;4.500;2023-05-19T11:49:49;42.07;35.25;44.19;;
72686;Laerm;61365;52.162;4.500;2023-05-19T11:52:23;42.15;35.19;44.38;;
72686;Laerm;61365;52.162;4.500;2023-05-19T11:54:49;41.88;38.64;44.07;;
72686;Laerm;61365;52.162;4.500;2023-05-19T11:57:16;42.02;34.64;44.66;;
72686;Laerm;61365;52.162;4.500;2023-05-19T11:59:42;41.96;35.71;44.22;;
72686;Laerm;61365;52.162;4.500;2023-05-19T12:04:41;41.83;35.99;44.17;;
72686;Laerm;61365;52.162;4.500;2023-05-19T12:07:10;41.91;37.93;44.17;;
72686;Laerm;61365;52.162;4.500;2023-05-19T12:09:36;42.00;39.59;44.40;;
72686;Laerm;61365;52.162;4.500;2023-05-19T12:12:03;42.03;32.09;44.47;;
72686;Laerm;61365;52.162;4.500;2023-05-19T12:14:29;42.08;38.58;44.47;;
72686;Laerm;61365;52.162;4.500;2023-05-19T12:16:56;41.93;36.71;44.22;;
72686;Laerm;61365;52.162;4.500;2023-05-19T12:19:23;41.98;38.99;44.31;;
72686;Laerm;61365;52.162;4.500;2023-05-19T12:21:53;41.88;37.28;44.10;;
72686;Laerm;61365;52.162;4.500;2023-05-19T12:24:20;41.91;39.23;44.49;;
72686;Laerm;61365;52.162;4.500;2023-05-19T12:26:47;42.11;37.91;44.23;;
72686;Laerm;61365;52.162;4.500;2023-05-19T12:29:15;41.99;36.32;44.41;;
72686;Laerm;61365;52.162;4.500;2023-05-19T12:31:41;41.94;35.88;44.17;;
72686;Laerm;61365;52.162;4.500;2023-05-19T12:34:07;42.24;32.11;52.20;;
72686;Laerm;61365;52.162;4.500;2023-05-19T12:36:34;42.40;32.99;52.79;;
72686;Laerm;61365;52.162;4.500;2023-05-19T12:39:00;42.00;35.62;44.48;;
72686;Laerm;61365;52.162;4.500;2023-05-19T12:41:27;42.16;39.46;44.55;;
72686;Laerm;61365;52.162;4.500;2023-05-19T12:43:54;42.18;31.38;44.51;;
72686;Laerm;61365;52.162;4.500;2023-05-19T12:46:20;41.98;34.01;44.12;;
72686;Laerm;61365;52.162;4.500;2023-05-19T12:48:47;41.96;37.92;44.90;;
72686;Laerm;61365;52.162;4.500;2023-05-19T12:51:19;41.97;34.83;44.11;;
72686;Laerm;61365;52.162;4.500;2023-05-19T12:53:45;42.02;36.37;48.59;;
72686;Laerm;61365;52.162;4.500;2023-05-19T12:56:13;41.85;37.27;44.08;;
72686;Laerm;61365;52.162;4.500;2023-05-19T12:58:40;41.89;37.57;44.22;;
72686;Laerm;61365;52.162;4.500;2023-05-19T13:01:11;41.99;35.60;44.48;;
72686;Laerm;61365;52.162;4.500;2023-05-19T13:03:40;42.05;36.55;44.15;;
72686;Laerm;61365;52.162;4.500;2023-05-19T13:06:08;41.96;37.52;44.32;;
72686;Laerm;61365;52.162;4.500;2023-05-19T13:08:37;42.07;38.04;45.97;;
72686;Laerm;61365;52.162;4.500;2023-05-19T13:11:04;42.07;38.18;44.43;;
72686;Laerm;61365;52.162;4.500;2023-05-19T13:13:31;42.15;34.34;44.53;;
72686;Laerm;61365;52.162;4.500;2023-05-19T13:15:57;42.13;37.14;44.27;;
72686;Laerm;61365;52.162;4.500;2023-05-19T13:18:24;42.11;36.47;44.36;;
72686;Laerm;61365;52.162;4.500;2023-05-19T13:20:52;42.14;35.19;44.54;;
72686;Laerm;61365;52.162;4.500;2023-05-19T13:23:19;42.17;39.71;46.46;;
72686;Laerm;61365;52.162;4.500;2023-05-19T13:25:45;41.96;36.87;44.20;;
72686;Laerm;61365;52.162;4.500;2023-05-19T13:28:11;41.92;39.38;44.20;;
72686;Laerm;61365;52.162;4.500;2023-05-19T13:30:39;41.90;33.74;51.70;;
72686;Laerm;61365;52.162;4.500;2023-05-19T13:33:06;41.99;39.36;44.37;;
72686;Laerm;61365;52.162;4.500;2023-05-19T13:35:32;41.95;36.04;44.34;;
72686;Laerm;61365;52.162;4.500;2023-05-19T13:38:05;41.84;35.86;44.47;;
72686;Laerm;61365;52.162;4.500;2023-05-19T13:40:32;41.94;34.94;44.09;;
72686;Laerm;61365;52.162;4.500;2023-05-19T13:43:00;41.91;36.29;44.08;;
72686;Laerm;61365;52.162;4.500;2023-05-19T13:45:26;42.00;36.58;47.44;;
72686;Laerm;61365;52.162;4.500;2023-05-19T13:47:53;41.91;38.99;44.03;;
72686;Laerm;61365;52.162;4.500;2023-05-19T13:50:19;41.85;37.40;44.09;;
72686;Laerm;61365;52.162;4.500;2023-05-19T13:52:45;42.03;37.23;44.42;;
72686;Laerm;61365;52.162;4.500;2023-05-19T13:55:12;41.91;32.69;52.05;;
72686;Laerm;61365;52.162;4.500;2023-05-19T13:57:38;41.89;39.05;44.34;;
72686;Laerm;61365;52.162;4.500;2023-05-19T14:00:04;42.00;33.77;52.03;;
72686;Laerm;61365;52.162;4.500;2023-05-19T14:02:32;42.06;37.06;44.25;;
72686;Laerm;61365;52.162;4.500;2023-05-19T14:04:58;42.10;36.06;44.14;;
72686;Laerm;61365;52.162;4.500;2023-05-19T14:07:24;42.13;36.13;44.39;;
72686;Laerm;61365;52.162;4.500;2023-05-19T14:09:50;42.03;37.66;44.48;;
72686;Laerm;61365;52.162;4.500;2023-05-19T14:12:17;41.92;37.56;44.09;;